sensor_id;sensor_type;location;lat;lon;timestamp;temperature;humidity
10447;DHT22;5271;44.422;26.092;2022-07-09T00:01:47;25.10;67.10
10447;DHT22;5271;44.422;26.092;2022-07-09T00:04:14;25.00;67.30
10447;DHT22;5271;44.422;26.092;2022-07-09T00:06:41;25.00;67.50
10447;DHT22;5271;44.422;26.092;2022-07-09T00:09:08;25.10;68.00
10447;DHT22;5271;44.422;26.092;2022-07-09T00:11:37;25.20;67.60
10447;DHT22;5271;44.422;26.092;2022-07-09T00:14:04;25.20;66.70
10447;DHT22;5271;44.422;26.092;2022-07-09T00:16:31;25.20;68.10
10447;DHT22;5271;44.422;26.092;2022-07-09T00:18:59;25.20;68.20
10447;DHT22;5271;44.422;26.092;2022-07-09T00:21:26;25.20;69.00
10447;DHT22;5271;44.422;26.092;2022-07-09T00:23:53;25.20;68.00
10447;DHT22;5271;44.422;26.092;2022-07-09T00:26:20;25.20;66.60
10447;DHT22;5271;44.422;26.092;2022-07-09T00:28:48;25.20;68.80
10447;DHT22;5271;44.422;26.092;2022-07-09T00:31:15;25.10;68.80
10447;DHT22;5271;44.422;26.092;2022-07-09T00:33:43;25.20;65.30
10447;DHT22;5271;44.422;26.092;2022-07-09T00:36:10;25.10;67.40
10447;DHT22;5271;44.422;26.092;2022-07-09T00:38:37;25.00;67.40
10447;DHT22;5271;44.422;26.092;2022-07-09T00:41:04;24.90;68.60
10447;DHT22;5271;44.422;26.092;2022-07-09T00:43:31;25.00;67.20
10447;DHT22;5271;44.422;26.092;2022-07-09T00:46:00;25.00;68.00
10447;DHT22;5271;44.422;26.092;2022-07-09T00:48:27;25.10;67.70
10447;DHT22;5271;44.422;26.092;2022-07-09T00:50:54;25.10;67.30
10447;DHT22;5271;44.422;26.092;2022-07-09T00:53:23;25.10;65.70
10447;DHT22;5271;44.422;26.092;2022-07-09T00:55:52;24.90;67.40
10447;DHT22;5271;44.422;26.092;2022-07-09T00:58:21;24.90;67.10
10447;DHT22;5271;44.422;26.092;2022-07-09T01:00:48;25.00;67.70
10447;DHT22;5271;44.422;26.092;2022-07-09T01:03:17;25.00;66.50
10447;DHT22;5271;44.422;26.092;2022-07-09T01:05:44;24.90;67.10
10447;DHT22;5271;44.422;26.092;2022-07-09T01:08:11;24.90;67.50
10447;DHT22;5271;44.422;26.092;2022-07-09T01:10:39;24.90;69.20
10447;DHT22;5271;44.422;26.092;2022-07-09T01:13:07;25.00;68.70
10447;DHT22;5271;44.422;26.092;2022-07-09T01:15:34;25.00;67.60
10447;DHT22;5271;44.422;26.092;2022-07-09T01:18:01;24.90;65.90
10447;DHT22;5271;44.422;26.092;2022-07-09T01:20:30;24.90;68.70
10447;DHT22;5271;44.422;26.092;2022-07-09T01:22:58;24.90;68.30
10447;DHT22;5271;44.422;26.092;2022-07-09T01:25:31;24.90;66.50
10447;DHT22;5271;44.422;26.092;2022-07-09T01:27:58;24.70;67.80
10447;DHT22;5271;44.422;26.092;2022-07-09T01:30:27;24.60;66.90
10447;DHT22;5271;44.422;26.092;2022-07-09T01:32:55;24.50;68.30
10447;DHT22;5271;44.422;26.092;2022-07-09T01:35:22;24.50;67.70
10447;DHT22;5271;44.422;26.092;2022-07-09T01:37:50;24.50;69.20
10447;DHT22;5271;44.422;26.092;2022-07-09T01:40:18;24.40;67.00
10447;DHT22;5271;44.422;26.092;2022-07-09T01:42:46;24.50;68.70
10447;DHT22;5271;44.422;26.092;2022-07-09T01:45:13;24.60;69.40
10447;DHT22;5271;44.422;26.092;2022-07-09T01:47:41;24.80;69.10
10447;DHT22;5271;44.422;26.092;2022-07-09T01:50:09;24.70;68.40
10447;DHT22;5271;44.422;26.092;2022-07-09T01:52:37;24.60;68.50
10447;DHT22;5271;44.422;26.092;2022-07-09T01:55:06;24.60;69.50
10447;DHT22;5271;44.422;26.092;2022-07-09T01:57:33;24.70;70.50
10447;DHT22;5271;44.422;26.092;2022-07-09T02:00:00;24.70;69.30
10447;DHT22;5271;44.422;26.092;2022-07-09T02:02:29;24.60;69.00
10447;DHT22;5271;44.422;26.092;2022-07-09T02:04:56;24.50;68.70
10447;DHT22;5271;44.422;26.092;2022-07-09T02:07:24;24.40;68.00
10447;DHT22;5271;44.422;26.092;2022-07-09T02:09:51;24.40;67.90
10447;DHT22;5271;44.422;26.092;2022-07-09T02:12:20;24.10;68.20
10447;DHT22;5271;44.422;26.092;2022-07-09T02:14:47;24.20;68.90
10447;DHT22;5271;44.422;26.092;2022-07-09T02:17:15;24.20;69.00
10447;DHT22;5271;44.422;26.092;2022-07-09T02:19:42;24.00;68.50
10447;DHT22;5271;44.422;26.092;2022-07-09T02:22:09;24.00;69.10
10447;DHT22;5271;44.422;26.092;2022-07-09T02:24:36;23.80;68.60
10447;DHT22;5271;44.422;26.092;2022-07-09T02:27:04;23.90;69.00
10447;DHT22;5271;44.422;26.092;2022-07-09T02:29:33;23.90;69.20
10447;DHT22;5271;44.422;26.092;2022-07-09T02:32:00;23.90;68.90
10447;DHT22;5271;44.422;26.092;2022-07-09T02:34:27;24.00;70.00
10447;DHT22;5271;44.422;26.092;2022-07-09T02:36:54;24.00;69.30
10447;DHT22;5271;44.422;26.092;2022-07-09T02:39:21;24.00;70.60
10447;DHT22;5271;44.422;26.092;2022-07-09T02:41:48;23.90;69.30
10447;DHT22;5271;44.422;26.092;2022-07-09T02:44:15;23.80;71.00
10447;DHT22;5271;44.422;26.092;2022-07-09T02:46:44;23.90;70.10
10447;DHT22;5271;44.422;26.092;2022-07-09T02:49:11;24.00;69.60
10447;DHT22;5271;44.422;26.092;2022-07-09T02:51:38;24.00;69.90
10447;DHT22;5271;44.422;26.092;2022-07-09T02:54:05;24.00;69.80
10447;DHT22;5271;44.422;26.092;2022-07-09T02:56:33;24.10;70.00
10447;DHT22;5271;44.422;26.092;2022-07-09T02:59:00;24.10;69.10
10447;DHT22;5271;44.422;26.092;2022-07-09T03:01:28;24.00;68.10
10447;DHT22;5271;44.422;26.092;2022-07-09T03:03:57;23.90;71.10
10447;DHT22;5271;44.422;26.092;2022-07-09T03:06:24;24.00;69.10
10447;DHT22;5271;44.422;26.092;2022-07-09T03:08:51;23.90;69.20
10447;DHT22;5271;44.422;26.092;2022-07-09T03:11:18;23.90;69.10
10447;DHT22;5271;44.422;26.092;2022-07-09T03:13:45;23.90;70.00
10447;DHT22;5271;44.422;26.092;2022-07-09T03:16:12;23.80;70.00
10447;DHT22;5271;44.422;26.092;2022-07-09T03:18:39;23.90;70.50
10447;DHT22;5271;44.422;26.092;2022-07-09T03:21:08;23.90;71.10
10447;DHT22;5271;44.422;26.092;2022-07-09T03:23:37;24.10;70.40
10447;DHT22;5271;44.422;26.092;2022-07-09T03:26:05;23.90;68.20
10447;DHT22;5271;44.422;26.092;2022-07-09T03:28:33;23.90;69.20
10447;DHT22;5271;44.422;26.092;2022-07-09T03:31:01;23.80;68.70
10447;DHT22;5271;44.422;26.092;2022-07-09T03:33:28;23.80;69.90
10447;DHT22;5271;44.422;26.092;2022-07-09T03:35:55;23.70;70.60
10447;DHT22;5271;44.422;26.092;2022-07-09T03:38:24;23.70;69.50
10447;DHT22;5271;44.422;26.092;2022-07-09T03:40:51;23.60;69.70
10447;DHT22;5271;44.422;26.092;2022-07-09T03:43:19;23.70;70.50
10447;DHT22;5271;44.422;26.092;2022-07-09T03:45:46;23.70;69.30
10447;DHT22;5271;44.422;26.092;2022-07-09T03:48:13;23.70;69.50
10447;DHT22;5271;44.422;26.092;2022-07-09T03:50:40;23.80;70.10
10447;DHT22;5271;44.422;26.092;2022-07-09T03:53:07;23.90;69.50
10447;DHT22;5271;44.422;26.092;2022-07-09T03:55:36;24.10;69.80
10447;DHT22;5271;44.422;26.092;2022-07-09T03:58:03;24.00;69.90
10447;DHT22;5271;44.422;26.092;2022-07-09T04:00:31;24.10;69.50
10447;DHT22;5271;44.422;26.092;2022-07-09T04:02:58;24.10;69.50
10447;DHT22;5271;44.422;26.092;2022-07-09T04:05:25;24.10;69.40
10447;DHT22;5271;44.422;26.092;2022-07-09T04:07:52;24.10;70.60
10447;DHT22;5271;44.422;26.092;2022-07-09T04:10:19;24.20;70.50
10447;DHT22;5271;44.422;26.092;2022-07-09T04:12:48;24.00;69.70
10447;DHT22;5271;44.422;26.092;2022-07-09T04:15:15;24.00;69.60
10447;DHT22;5271;44.422;26.092;2022-07-09T04:17:42;24.00;69.50
10447;DHT22;5271;44.422;26.092;2022-07-09T04:20:10;24.10;70.60
10447;DHT22;5271;44.422;26.092;2022-07-09T04:22:38;24.10;70.10
10447;DHT22;5271;44.422;26.092;2022-07-09T04:25:05;24.30;69.50
10447;DHT22;5271;44.422;26.092;2022-07-09T04:27:33;24.20;69.30
10447;DHT22;5271;44.422;26.092;2022-07-09T04:30:03;24.10;69.80
10447;DHT22;5271;44.422;26.092;2022-07-09T04:32:30;24.20;69.70
10447;DHT22;5271;44.422;26.092;2022-07-09T04:34:58;24.20;69.20
10447;DHT22;5271;44.422;26.092;2022-07-09T04:37:25;24.20;70.80
10447;DHT22;5271;44.422;26.092;2022-07-09T04:39:52;24.30;69.20
10447;DHT22;5271;44.422;26.092;2022-07-09T04:42:20;24.20;68.70
10447;DHT22;5271;44.422;26.092;2022-07-09T04:44:47;24.20;69.10
10447;DHT22;5271;44.422;26.092;2022-07-09T04:47:15;24.30;69.80
10447;DHT22;5271;44.422;26.092;2022-07-09T04:49:42;24.30;69.50
10447;DHT22;5271;44.422;26.092;2022-07-09T04:52:09;24.40;69.20
10447;DHT22;5271;44.422;26.092;2022-07-09T04:54:37;24.40;69.30
10447;DHT22;5271;44.422;26.092;2022-07-09T04:57:05;24.50;69.70
10447;DHT22;5271;44.422;26.092;2022-07-09T04:59:32;24.60;69.30
10447;DHT22;5271;44.422;26.092;2022-07-09T05:01:59;24.60;67.60
10447;DHT22;5271;44.422;26.092;2022-07-09T05:04:27;24.50;69.30
10447;DHT22;5271;44.422;26.092;2022-07-09T05:06:55;24.50;68.70
10447;DHT22;5271;44.422;26.092;2022-07-09T05:09:23;24.50;68.40
10447;DHT22;5271;44.422;26.092;2022-07-09T05:11:50;24.50;68.10
10447;DHT22;5271;44.422;26.092;2022-07-09T05:14:17;24.60;68.10
10447;DHT22;5271;44.422;26.092;2022-07-09T05:16:44;24.60;69.00
10447;DHT22;5271;44.422;26.092;2022-07-09T05:19:11;24.70;68.00
10447;DHT22;5271;44.422;26.092;2022-07-09T05:21:40;24.90;68.90
10447;DHT22;5271;44.422;26.092;2022-07-09T05:24:08;24.80;67.70
10447;DHT22;5271;44.422;26.092;2022-07-09T05:26:35;24.80;67.70
10447;DHT22;5271;44.422;26.092;2022-07-09T05:29:02;25.00;68.30
10447;DHT22;5271;44.422;26.092;2022-07-09T05:31:30;25.20;68.40
10447;DHT22;5271;44.422;26.092;2022-07-09T05:33:57;25.20;67.50
10447;DHT22;5271;44.422;26.092;2022-07-09T05:36:26;25.20;67.30
10447;DHT22;5271;44.422;26.092;2022-07-09T05:38:56;25.40;68.60
10447;DHT22;5271;44.422;26.092;2022-07-09T05:41:23;25.70;67.40
10447;DHT22;5271;44.422;26.092;2022-07-09T05:43:51;25.80;65.90
10447;DHT22;5271;44.422;26.092;2022-07-09T05:46:18;25.80;65.60
10447;DHT22;5271;44.422;26.092;2022-07-09T05:48:45;25.80;65.70
10447;DHT22;5271;44.422;26.092;2022-07-09T05:51:12;25.70;65.30
10447;DHT22;5271;44.422;26.092;2022-07-09T05:53:40;25.70;65.70
10447;DHT22;5271;44.422;26.092;2022-07-09T05:56:08;25.90;65.20
10447;DHT22;5271;44.422;26.092;2022-07-09T05:58:35;25.90;65.20
10447;DHT22;5271;44.422;26.092;2022-07-09T06:01:04;25.90;64.30
10447;DHT22;5271;44.422;26.092;2022-07-09T06:03:31;26.00;64.50
10447;DHT22;5271;44.422;26.092;2022-07-09T06:05:59;26.00;64.40
10447;DHT22;5271;44.422;26.092;2022-07-09T06:08:26;26.30;63.10
10447;DHT22;5271;44.422;26.092;2022-07-09T06:10:53;26.00;63.40
10447;DHT22;5271;44.422;26.092;2022-07-09T06:13:21;25.80;64.90
10447;DHT22;5271;44.422;26.092;2022-07-09T06:15:49;25.90;64.40
10447;DHT22;5271;44.422;26.092;2022-07-09T06:18:16;26.00;65.10
10447;DHT22;5271;44.422;26.092;2022-07-09T06:20:43;26.20;63.30
10447;DHT22;5271;44.422;26.092;2022-07-09T06:23:11;26.20;62.70
10447;DHT22;5271;44.422;26.092;2022-07-09T06:25:39;26.10;62.50
10447;DHT22;5271;44.422;26.092;2022-07-09T06:28:06;26.10;63.00
10447;DHT22;5271;44.422;26.092;2022-07-09T06:30:35;26.10;62.60
10447;DHT22;5271;44.422;26.092;2022-07-09T06:33:02;26.20;62.90
10447;DHT22;5271;44.422;26.092;2022-07-09T06:35:29;26.20;63.00
10447;DHT22;5271;44.422;26.092;2022-07-09T06:37:57;26.10;63.30
10447;DHT22;5271;44.422;26.092;2022-07-09T06:40:24;26.30;63.50
10447;DHT22;5271;44.422;26.092;2022-07-09T06:42:51;26.40;63.80
10447;DHT22;5271;44.422;26.092;2022-07-09T06:45:18;26.50;62.40
10447;DHT22;5271;44.422;26.092;2022-07-09T06:47:46;26.70;62.10
10447;DHT22;5271;44.422;26.092;2022-07-09T06:50:14;26.70;61.70
10447;DHT22;5271;44.422;26.092;2022-07-09T06:52:42;26.70;61.60
10447;DHT22;5271;44.422;26.092;2022-07-09T06:55:09;26.70;61.90
10447;DHT22;5271;44.422;26.092;2022-07-09T06:57:37;26.70;62.20
10447;DHT22;5271;44.422;26.092;2022-07-09T07:00:05;26.70;62.40
10447;DHT22;5271;44.422;26.092;2022-07-09T07:02:32;26.70;61.90
10447;DHT22;5271;44.422;26.092;2022-07-09T07:05:01;26.70;62.20
10447;DHT22;5271;44.422;26.092;2022-07-09T07:07:28;26.80;62.50
10447;DHT22;5271;44.422;26.092;2022-07-09T07:09:55;26.70;62.80
10447;DHT22;5271;44.422;26.092;2022-07-09T07:12:22;26.80;63.00
10447;DHT22;5271;44.422;26.092;2022-07-09T07:14:49;26.90;62.40
10447;DHT22;5271;44.422;26.092;2022-07-09T07:17:17;26.90;62.30
10447;DHT22;5271;44.422;26.092;2022-07-09T07:19:44;26.90;62.80
10447;DHT22;5271;44.422;26.092;2022-07-09T07:22:13;27.00;62.80
10447;DHT22;5271;44.422;26.092;2022-07-09T07:24:40;27.10;63.30
10447;DHT22;5271;44.422;26.092;2022-07-09T07:27:07;27.30;62.90
10447;DHT22;5271;44.422;26.092;2022-07-09T07:29:34;27.40;62.20
10447;DHT22;5271;44.422;26.092;2022-07-09T07:32:01;27.40;61.40
10447;DHT22;5271;44.422;26.092;2022-07-09T07:34:28;27.40;60.80
10447;DHT22;5271;44.422;26.092;2022-07-09T07:36:57;27.50;61.00
10447;DHT22;5271;44.422;26.092;2022-07-09T07:39:25;27.50;60.00
10447;DHT22;5271;44.422;26.092;2022-07-09T07:41:52;27.40;60.30
10447;DHT22;5271;44.422;26.092;2022-07-09T07:44:19;27.40;60.00
10447;DHT22;5271;44.422;26.092;2022-07-09T07:46:48;27.40;59.70
10447;DHT22;5271;44.422;26.092;2022-07-09T07:49:15;27.40;59.40
10447;DHT22;5271;44.422;26.092;2022-07-09T07:51:43;27.50;59.60
10447;DHT22;5271;44.422;26.092;2022-07-09T07:54:10;27.40;59.80
10447;DHT22;5271;44.422;26.092;2022-07-09T07:56:39;27.50;59.80
10447;DHT22;5271;44.422;26.092;2022-07-09T07:59:07;27.60;59.80
10447;DHT22;5271;44.422;26.092;2022-07-09T08:01:34;27.70;59.20
10447;DHT22;5271;44.422;26.092;2022-07-09T08:04:01;27.90;59.10
10447;DHT22;5271;44.422;26.092;2022-07-09T08:06:28;27.90;58.20
10447;DHT22;5271;44.422;26.092;2022-07-09T08:08:55;27.90;58.60
10447;DHT22;5271;44.422;26.092;2022-07-09T08:11:22;27.80;58.20
10447;DHT22;5271;44.422;26.092;2022-07-09T08:13:51;27.80;58.50
10447;DHT22;5271;44.422;26.092;2022-07-09T08:16:18;27.70;58.10
10447;DHT22;5271;44.422;26.092;2022-07-09T08:18:46;27.70;58.00
10447;DHT22;5271;44.422;26.092;2022-07-09T08:21:13;27.80;58.30
10447;DHT22;5271;44.422;26.092;2022-07-09T08:23:40;27.80;58.50
10447;DHT22;5271;44.422;26.092;2022-07-09T08:26:20;28.00;58.80
10447;DHT22;5271;44.422;26.092;2022-07-09T08:28:47;28.00;58.50
10447;DHT22;5271;44.422;26.092;2022-07-09T08:31:16;27.90;58.10
10447;DHT22;5271;44.422;26.092;2022-07-09T08:33:44;28.00;57.10
10447;DHT22;5271;44.422;26.092;2022-07-09T08:36:11;28.00;57.20
10447;DHT22;5271;44.422;26.092;2022-07-09T08:38:38;28.00;57.60
10447;DHT22;5271;44.422;26.092;2022-07-09T08:41:06;28.10;57.50
10447;DHT22;5271;44.422;26.092;2022-07-09T08:43:34;28.20;57.50
10447;DHT22;5271;44.422;26.092;2022-07-09T08:46:04;28.20;57.30
10447;DHT22;5271;44.422;26.092;2022-07-09T08:48:36;28.30;57.60
10447;DHT22;5271;44.422;26.092;2022-07-09T08:51:04;28.40;55.90
10447;DHT22;5271;44.422;26.092;2022-07-09T08:53:31;28.40;56.40
10447;DHT22;5271;44.422;26.092;2022-07-09T08:55:58;28.50;56.30
10447;DHT22;5271;44.422;26.092;2022-07-09T08:58:26;28.40;56.20
10447;DHT22;5271;44.422;26.092;2022-07-09T09:00:53;28.60;56.00
10447;DHT22;5271;44.422;26.092;2022-07-09T09:03:21;28.70;56.10
10447;DHT22;5271;44.422;26.092;2022-07-09T09:06:01;28.80;56.30
10447;DHT22;5271;44.422;26.092;2022-07-09T09:08:33;29.00;55.70
10447;DHT22;5271;44.422;26.092;2022-07-09T09:11:02;29.00;55.70
10447;DHT22;5271;44.422;26.092;2022-07-09T09:13:29;29.00;55.60
10447;DHT22;5271;44.422;26.092;2022-07-09T09:16:03;29.20;55.90
10447;DHT22;5271;44.422;26.092;2022-07-09T09:18:31;29.30;55.70
10447;DHT22;5271;44.422;26.092;2022-07-09T09:21:04;29.50;54.70
10447;DHT22;5271;44.422;26.092;2022-07-09T09:23:39;29.40;55.40
10447;DHT22;5271;44.422;26.092;2022-07-09T09:26:10;29.50;56.00
10447;DHT22;5271;44.422;26.092;2022-07-09T09:28:48;29.50;56.30
10447;DHT22;5271;44.422;26.092;2022-07-09T09:31:21;29.60;54.80
10447;DHT22;5271;44.422;26.092;2022-07-09T09:33:49;29.60;55.70
10447;DHT22;5271;44.422;26.092;2022-07-09T09:36:29;29.70;55.70
10447;DHT22;5271;44.422;26.092;2022-07-09T09:39:14;29.80;55.50
10447;DHT22;5271;44.422;26.092;2022-07-09T09:41:43;29.80;55.60
10447;DHT22;5271;44.422;26.092;2022-07-09T09:44:12;29.80;55.40
10447;DHT22;5271;44.422;26.092;2022-07-09T09:46:41;29.80;55.70
10447;DHT22;5271;44.422;26.092;2022-07-09T09:49:10;29.90;55.20
10447;DHT22;5271;44.422;26.092;2022-07-09T09:51:45;30.10;55.30
10447;DHT22;5271;44.422;26.092;2022-07-09T09:54:13;30.20;54.60
10447;DHT22;5271;44.422;26.092;2022-07-09T09:56:41;30.20;55.10
10447;DHT22;5271;44.422;26.092;2022-07-09T09:59:10;30.20;55.00
10447;DHT22;5271;44.422;26.092;2022-07-09T10:01:39;30.40;55.30
10447;DHT22;5271;44.422;26.092;2022-07-09T10:04:06;30.60;55.20
10447;DHT22;5271;44.422;26.092;2022-07-09T10:06:33;30.70;54.10
10447;DHT22;5271;44.422;26.092;2022-07-09T10:09:03;30.70;53.70
10447;DHT22;5271;44.422;26.092;2022-07-09T10:11:48;30.50;53.40
10447;DHT22;5271;44.422;26.092;2022-07-09T10:14:17;30.60;53.20
10447;DHT22;5271;44.422;26.092;2022-07-09T10:16:45;30.60;53.00
10447;DHT22;5271;44.422;26.092;2022-07-09T10:19:23;30.70;53.10
10447;DHT22;5271;44.422;26.092;2022-07-09T10:21:52;30.70;52.70
10447;DHT22;5271;44.422;26.092;2022-07-09T10:24:25;30.60;53.30
10447;DHT22;5271;44.422;26.092;2022-07-09T10:27:01;30.90;53.80
10447;DHT22;5271;44.422;26.092;2022-07-09T10:29:28;31.00;53.30
10447;DHT22;5271;44.422;26.092;2022-07-09T10:31:56;31.20;53.10
10447;DHT22;5271;44.422;26.092;2022-07-09T10:34:43;31.20;52.40
10447;DHT22;5271;44.422;26.092;2022-07-09T10:37:16;31.20;52.20
10447;DHT22;5271;44.422;26.092;2022-07-09T10:39:54;31.30;52.40
10447;DHT22;5271;44.422;26.092;2022-07-09T10:42:22;31.40;52.20
10447;DHT22;5271;44.422;26.092;2022-07-09T10:44:50;31.60;52.00
10447;DHT22;5271;44.422;26.092;2022-07-09T10:47:19;31.50;50.70
10447;DHT22;5271;44.422;26.092;2022-07-09T10:49:46;31.40;51.20
10447;DHT22;5271;44.422;26.092;2022-07-09T10:52:13;31.40;51.00
10447;DHT22;5271;44.422;26.092;2022-07-09T10:54:48;31.60;51.10
10447;DHT22;5271;44.422;26.092;2022-07-09T10:57:16;31.60;51.10
10447;DHT22;5271;44.422;26.092;2022-07-09T10:59:46;31.60;50.40
10447;DHT22;5271;44.422;26.092;2022-07-09T11:02:18;31.60;50.30
10447;DHT22;5271;44.422;26.092;2022-07-09T11:04:48;31.60;49.80
10447;DHT22;5271;44.422;26.092;2022-07-09T11:07:19;31.50;49.90
10447;DHT22;5271;44.422;26.092;2022-07-09T11:09:47;31.60;49.90
10447;DHT22;5271;44.422;26.092;2022-07-09T11:12:17;31.60;50.20
10447;DHT22;5271;44.422;26.092;2022-07-09T11:14:45;31.60;50.10
10447;DHT22;5271;44.422;26.092;2022-07-09T11:17:14;31.70;50.10
10447;DHT22;5271;44.422;26.092;2022-07-09T11:19:42;31.70;50.10
10447;DHT22;5271;44.422;26.092;2022-07-09T11:22:09;31.70;49.30
10447;DHT22;5271;44.422;26.092;2022-07-09T11:24:37;31.50;49.90
10447;DHT22;5271;44.422;26.092;2022-07-09T11:27:05;31.40;51.30
10447;DHT22;5271;44.422;26.092;2022-07-09T11:29:35;31.40;52.30
10447;DHT22;5271;44.422;26.092;2022-07-09T11:32:03;31.30;53.70
10447;DHT22;5271;44.422;26.092;2022-07-09T11:34:30;31.20;54.60
10447;DHT22;5271;44.422;26.092;2022-07-09T11:36:58;31.00;55.10
10447;DHT22;5271;44.422;26.092;2022-07-09T11:39:27;31.00;55.40
10447;DHT22;5271;44.422;26.092;2022-07-09T11:41:56;31.00;54.70
10447;DHT22;5271;44.422;26.092;2022-07-09T11:44:25;31.10;55.00
10447;DHT22;5271;44.422;26.092;2022-07-09T11:47:04;31.30;54.70
10447;DHT22;5271;44.422;26.092;2022-07-09T11:49:36;31.50;54.30
10447;DHT22;5271;44.422;26.092;2022-07-09T11:52:04;31.50;54.20
10447;DHT22;5271;44.422;26.092;2022-07-09T11:54:31;31.60;53.90
10447;DHT22;5271;44.422;26.092;2022-07-09T11:56:58;31.50;53.10
10447;DHT22;5271;44.422;26.092;2022-07-09T11:59:27;31.40;52.70
10447;DHT22;5271;44.422;26.092;2022-07-09T12:01:57;31.30;53.20
10447;DHT22;5271;44.422;26.092;2022-07-09T12:04:28;31.30;53.20
10447;DHT22;5271;44.422;26.092;2022-07-09T12:06:56;31.30;52.60
10447;DHT22;5271;44.422;26.092;2022-07-09T12:09:30;31.30;52.40
10447;DHT22;5271;44.422;26.092;2022-07-09T12:11:58;31.40;51.20
10447;DHT22;5271;44.422;26.092;2022-07-09T12:14:26;31.50;51.00
10447;DHT22;5271;44.422;26.092;2022-07-09T12:16:53;31.80;50.50
10447;DHT22;5271;44.422;26.092;2022-07-09T12:19:20;32.00;49.90
10447;DHT22;5271;44.422;26.092;2022-07-09T12:21:48;32.10;49.70
10447;DHT22;5271;44.422;26.092;2022-07-09T12:24:16;31.90;48.70
10447;DHT22;5271;44.422;26.092;2022-07-09T12:26:43;31.80;48.90
10447;DHT22;5271;44.422;26.092;2022-07-09T12:29:10;31.80;48.70
10447;DHT22;5271;44.422;26.092;2022-07-09T12:31:37;31.90;48.70
10447;DHT22;5271;44.422;26.092;2022-07-09T12:34:05;32.00;48.90
10447;DHT22;5271;44.422;26.092;2022-07-09T12:36:32;32.10;48.60
10447;DHT22;5271;44.422;26.092;2022-07-09T12:39:01;32.40;48.40
10447;DHT22;5271;44.422;26.092;2022-07-09T12:41:28;32.50;48.40
10447;DHT22;5271;44.422;26.092;2022-07-09T12:43:55;32.60;47.50
10447;DHT22;5271;44.422;26.092;2022-07-09T12:46:22;32.50;48.20
10447;DHT22;5271;44.422;26.092;2022-07-09T12:48:49;32.50;48.30
10447;DHT22;5271;44.422;26.092;2022-07-09T12:51:16;32.50;48.20
10447;DHT22;5271;44.422;26.092;2022-07-09T12:53:44;32.40;48.10
10447;DHT22;5271;44.422;26.092;2022-07-09T12:56:12;32.30;48.80
10447;DHT22;5271;44.422;26.092;2022-07-09T12:58:40;32.30;49.40
10447;DHT22;5271;44.422;26.092;2022-07-09T13:01:07;32.20;49.90
10447;DHT22;5271;44.422;26.092;2022-07-09T13:03:34;32.10;50.20
10447;DHT22;5271;44.422;26.092;2022-07-09T13:06:01;32.00;51.00
10447;DHT22;5271;44.422;26.092;2022-07-09T13:08:29;31.90;50.30
10447;DHT22;5271;44.422;26.092;2022-07-09T13:10:56;31.80;50.40
10447;DHT22;5271;44.422;26.092;2022-07-09T13:13:24;31.70;50.90
10447;DHT22;5271;44.422;26.092;2022-07-09T13:15:51;31.50;51.30
10447;DHT22;5271;44.422;26.092;2022-07-09T13:18:18;31.60;51.90
10447;DHT22;5271;44.422;26.092;2022-07-09T13:20:46;31.70;51.90
10447;DHT22;5271;44.422;26.092;2022-07-09T13:23:13;31.80;52.30
10447;DHT22;5271;44.422;26.092;2022-07-09T13:25:40;32.00;52.20
10447;DHT22;5271;44.422;26.092;2022-07-09T13:28:07;32.20;52.10
10447;DHT22;5271;44.422;26.092;2022-07-09T13:30:40;32.10;52.00
10447;DHT22;5271;44.422;26.092;2022-07-09T13:33:07;32.10;52.20
10447;DHT22;5271;44.422;26.092;2022-07-09T13:35:34;31.80;52.60
10447;DHT22;5271;44.422;26.092;2022-07-09T13:38:02;31.80;54.10
10447;DHT22;5271;44.422;26.092;2022-07-09T13:40:30;31.70;54.40
10447;DHT22;5271;44.422;26.092;2022-07-09T13:42:57;31.70;54.60
10447;DHT22;5271;44.422;26.092;2022-07-09T13:45:24;31.60;54.70
10447;DHT22;5271;44.422;26.092;2022-07-09T13:47:54;31.20;55.20
10447;DHT22;5271;44.422;26.092;2022-07-09T13:50:22;31.00;55.60
10447;DHT22;5271;44.422;26.092;2022-07-09T13:52:49;31.10;55.60
10447;DHT22;5271;44.422;26.092;2022-07-09T13:55:17;31.10;55.90
10447;DHT22;5271;44.422;26.092;2022-07-09T13:57:44;31.00;56.00
10447;DHT22;5271;44.422;26.092;2022-07-09T14:00:12;30.90;56.10
10447;DHT22;5271;44.422;26.092;2022-07-09T14:02:40;30.80;56.20
10447;DHT22;5271;44.422;26.092;2022-07-09T14:05:08;30.80;56.20
10447;DHT22;5271;44.422;26.092;2022-07-09T14:07:36;30.80;56.10
10447;DHT22;5271;44.422;26.092;2022-07-09T14:10:03;30.80;56.30
10447;DHT22;5271;44.422;26.092;2022-07-09T14:12:30;30.60;56.40
10447;DHT22;5271;44.422;26.092;2022-07-09T14:14:57;30.60;56.30
10447;DHT22;5271;44.422;26.092;2022-07-09T14:17:25;30.60;56.20
10447;DHT22;5271;44.422;26.092;2022-07-09T14:19:52;30.60;56.40
10447;DHT22;5271;44.422;26.092;2022-07-09T14:22:21;30.70;56.30
10447;DHT22;5271;44.422;26.092;2022-07-09T14:24:48;30.80;56.10
10447;DHT22;5271;44.422;26.092;2022-07-09T14:27:15;30.80;55.90
10447;DHT22;5271;44.422;26.092;2022-07-09T14:29:43;30.90;56.00
10447;DHT22;5271;44.422;26.092;2022-07-09T14:32:10;30.80;55.60
10447;DHT22;5271;44.422;26.092;2022-07-09T14:34:37;30.80;55.70
10447;DHT22;5271;44.422;26.092;2022-07-09T14:37:04;30.80;55.60
10447;DHT22;5271;44.422;26.092;2022-07-09T14:39:33;30.80;55.60
10447;DHT22;5271;44.422;26.092;2022-07-09T14:42:00;31.00;55.50
10447;DHT22;5271;44.422;26.092;2022-07-09T14:44:27;30.90;55.10
10447;DHT22;5271;44.422;26.092;2022-07-09T14:46:56;30.80;55.20
10447;DHT22;5271;44.422;26.092;2022-07-09T14:49:25;30.80;55.00
10447;DHT22;5271;44.422;26.092;2022-07-09T14:51:52;30.80;55.30
10447;DHT22;5271;44.422;26.092;2022-07-09T14:54:20;30.80;55.00
10447;DHT22;5271;44.422;26.092;2022-07-09T14:56:48;30.60;55.20
10447;DHT22;5271;44.422;26.092;2022-07-09T14:59:15;30.40;55.20
10447;DHT22;5271;44.422;26.092;2022-07-09T15:01:45;30.20;55.60
10447;DHT22;5271;44.422;26.092;2022-07-09T15:04:13;30.10;55.90
10447;DHT22;5271;44.422;26.092;2022-07-09T15:06:41;29.90;56.20
10447;DHT22;5271;44.422;26.092;2022-07-09T15:09:08;29.80;57.10
10447;DHT22;5271;44.422;26.092;2022-07-09T15:11:36;29.70;58.10
10447;DHT22;5271;44.422;26.092;2022-07-09T15:14:04;29.50;59.20
10447;DHT22;5271;44.422;26.092;2022-07-09T15:16:32;29.30;60.20
10447;DHT22;5271;44.422;26.092;2022-07-09T15:18:59;29.20;60.50
10447;DHT22;5271;44.422;26.092;2022-07-09T15:21:26;29.20;61.00
10447;DHT22;5271;44.422;26.092;2022-07-09T15:23:55;29.10;61.20
10447;DHT22;5271;44.422;26.092;2022-07-09T15:26:22;28.90;61.70
10447;DHT22;5271;44.422;26.092;2022-07-09T15:28:49;28.80;63.00
10447;DHT22;5271;44.422;26.092;2022-07-09T15:31:20;28.70;63.10
10447;DHT22;5271;44.422;26.092;2022-07-09T15:33:48;28.60;65.20
10447;DHT22;5271;44.422;26.092;2022-07-09T15:36:15;28.50;63.40